Joe Foss Field Airport
KFSD : now visible

Airfield :











YOU CAN JOIN US ON...

 
LOGIN :

Register | Disclaimer

   EN    FR    IT 

 









Legend :    VFR   Marginal VFR   IFR   Intensive IFR   Very Intensive IFR
Visi :
Ceiling :
>= 8 km
>= 3000ft
5 to 8 km
1000 to 3000 ft
1500m to 5 km
500 to 1000 ft
800 to 1500m
200 to 500 ft
< 800m
< 200 ft
Symbols :   Thunderstorms  Fog  Heavy snow  Heavy precipitations  Wind > 20 kt






- Airport Elevation : 1429 ft
- IATA code : FSD


KFSD - Joe Foss Field

CURRENT METAR :
  • 200656Z AUTO 30010G16KT 10SM -RA OVC095 11/06 A2951 RMK AO2 LTG DSNT E RAB01E13B31 SLP986 P0000 T01060061

EXPIRED METARs :
  • 200556Z AUTO 33008KT 10SM OVC100 11/06 A2945 RMK AO2 LTG DSNT SE SLP968 60000 T01110061 10261 20106 403170100 50022
  • 200546Z AUTO 34009G17KT 10SM OVC100 11/07 A2945 RMK AO2 LTG DSNT SE T01110067
  • 200531Z AUTO 32013KT 10SM VCTS OVC100 11/07 A2947 RMK AO2 T01110067
  • 200456Z 32015KT 10SM FEW033 SCT070 BKN110 11/07 A2947 RMK AO2 PK WND 32043/0420 RAB23E54 SLP976 P0000 T01110067

TAF KFSD
Valid from the 20 at 06:00 until the 21 at 06:00 UTC


200520Z 2006/2106 33012G26KT P6SM BKN090
FM200700 32009KT P6SM BKN090
FM200900 28007KT P6SM BKN100
FM201400 28012G18KT P6SM SCT150
FM201900 28019G28KT P6SM SCT150
FM210300 33011KT P6SM BKN035
KZMP FIR / North America



MET'MAP, your aeronautical weather chart ! - Copyright ORBIFLY December 2007 - Disclaimer

ORBIFLY MET'MAP TEAM :

Programming & Development : Alexandra Zaïnal
Original concept : Baudouin d'Aumeries
Technical & hardware support : Manuel Goepfert
Assistance : Marc-Olivier Méhu

Contact : metmap@orbifly.com




SOURCES & CREDITS :

   NOAA       Earth
Advisory